createdAt,value
2019-01-04T00:00:29.856Z,6.40
2019-01-04T00:03:35.893Z,6.17
2019-01-04T00:06:15.353Z,6.30
2019-01-04T00:08:57.325Z,7.20
2019-01-04T00:11:36.345Z,6.93
2019-01-04T00:14:16.240Z,7.30
2019-01-04T00:16:55.391Z,6.67
2019-01-04T00:19:34.556Z,7.90
2019-01-04T00:22:13.929Z,7.33
2019-01-04T00:24:53.891Z,6.97
2019-01-04T00:27:33.042Z,7.00
2019-01-04T00:30:32.268Z,6.53
2019-01-04T00:33:14.336Z,7.23
2019-01-04T00:35:53.575Z,7.13
2019-01-04T00:38:35.724Z,7.70
2019-01-04T00:41:14.803Z,8.37
2019-01-04T00:43:54.770Z,8.63
2019-01-04T00:46:34.745Z,9.17
2019-01-04T00:49:17.105Z,10.07
2019-01-04T00:51:59.537Z,10.27
2019-01-04T00:54:42.376Z,11.63
2019-01-04T00:57:21.697Z,13.27
2019-01-04T01:00:00.792Z,13.20
2019-01-04T01:02:39.856Z,14.93
2019-01-04T01:05:22.078Z,13.17
2019-01-04T01:08:01.220Z,13.60
2019-01-04T01:10:41.182Z,12.20
2019-01-04T01:13:21.218Z,11.63
2019-01-04T01:16:03.344Z,11.67
2019-01-04T01:18:43.271Z,10.40
2019-01-04T01:21:22.898Z,10.80
2019-01-04T01:24:02.154Z,11.23
2019-01-04T01:26:41.948Z,10.27
2019-01-04T01:29:21.846Z,9.67
2019-01-04T01:32:00.947Z,9.40
2019-01-04T01:34:40.182Z,10.73
2019-01-04T01:37:19.314Z,8.50
2019-01-04T01:39:58.447Z,8.70
2019-01-04T01:42:37.564Z,9.67
2019-01-04T01:45:17.479Z,10.00
2019-01-04T01:47:59.691Z,11.03
2019-01-04T01:50:38.925Z,10.20
2019-01-04T01:53:17.912Z,9.40
2019-01-04T01:55:57.368Z,8.87
2019-01-04T01:58:37.389Z,10.07
2019-01-04T02:01:16.737Z,9.20
2019-01-04T02:03:55.938Z,9.57
2019-01-04T02:06:34.989Z,8.43
2019-01-04T02:09:14.945Z,9.10
2019-01-04T02:11:56.984Z,9.70
2019-01-04T02:14:36.125Z,8.57
2019-01-04T02:17:16.443Z,8.57
2019-01-04T02:19:55.611Z,8.50
2019-01-04T02:22:35.175Z,7.70
2019-01-04T02:25:14.934Z,9.23
2019-01-04T02:27:56.924Z,9.83
2019-01-04T02:30:36.294Z,8.20
2019-01-04T02:33:16.191Z,7.97
2019-01-04T02:35:55.322Z,8.90
2019-01-04T02:38:37.590Z,8.47
2019-01-04T02:41:19.573Z,9.47
2019-01-04T02:43:58.823Z,8.70
2019-01-04T02:46:40.812Z,8.60
2019-01-04T02:49:20.892Z,8.90
2019-01-04T02:52:00.016Z,8.60
2019-01-04T02:54:39.194Z,8.77
2019-01-04T02:57:18.452Z,9.67
2019-01-04T03:00:00.632Z,9.47
2019-01-04T03:02:42.857Z,8.87
2019-01-04T03:05:24.976Z,8.43
2019-01-04T03:08:07.017Z,8.83
2019-01-04T03:10:46.122Z,8.60
2019-01-04T03:13:25.231Z,8.27
2019-01-04T03:16:05.303Z,7.70
2019-01-04T03:18:47.318Z,8.53
2019-01-04T03:21:26.429Z,8.00
2019-01-04T03:24:05.694Z,7.50
2019-01-04T03:26:45.697Z,7.70
2019-01-04T03:29:24.799Z,7.93
2019-01-04T03:32:04.673Z,7.73
2019-01-04T03:34:43.792Z,7.93
2019-01-04T03:37:23.080Z,7.30
2019-01-04T03:40:03.086Z,6.53
2019-01-04T03:42:42.394Z,7.70
2019-01-04T03:45:21.502Z,6.73
2019-01-04T03:48:03.559Z,7.03
2019-01-04T03:50:43.534Z,7.07
2019-01-04T03:53:22.907Z,7.20
2019-01-04T03:56:02.902Z,7.17
2019-01-04T03:58:42.006Z,6.80
2019-01-04T04:01:21.233Z,5.93
2019-01-04T04:04:00.380Z,6.27
2019-01-04T04:06:40.400Z,6.27
2019-01-04T04:09:20.390Z,5.77
2019-01-04T04:12:02.360Z,6.00
2019-01-04T04:14:41.568Z,5.43
2019-01-04T04:17:21.581Z,6.33
2019-01-04T04:20:01.519Z,6.13
2019-01-04T04:22:41.353Z,6.57
2019-01-04T04:25:21.401Z,6.60
2019-01-04T04:28:00.643Z,5.40
2019-01-04T04:30:39.957Z,5.87
2019-01-04T04:33:19.003Z,5.83
2019-01-04T04:35:58.216Z,5.90
2019-01-04T04:38:37.381Z,5.63
2019-01-04T04:41:19.343Z,6.13
2019-01-04T04:43:58.577Z,5.77
2019-01-04T04:46:38.559Z,5.37
2019-01-04T04:49:17.642Z,5.53
2019-01-04T04:51:59.750Z,5.37
2019-01-04T04:54:59.762Z,5.57
2019-01-04T04:57:39.665Z,5.50
2019-01-04T05:00:18.716Z,6.03
2019-01-04T05:02:57.908Z,6.50
2019-01-04T05:05:37.886Z,6.17
2019-01-04T05:08:16.993Z,6.37
2019-01-04T05:10:56.958Z,6.83
2019-01-04T05:13:38.877Z,6.97
2019-01-04T05:16:18.853Z,6.50
2019-01-04T05:18:57.959Z,7.10
2019-01-04T05:21:39.992Z,7.83
2019-01-04T05:24:19.117Z,7.00
2019-01-04T05:26:58.633Z,8.70
2019-01-04T05:29:37.836Z,8.33
2019-01-04T05:32:16.865Z,8.23
2019-01-04T05:34:56.004Z,8.10
2019-01-04T05:37:38.070Z,8.50
2019-01-04T05:40:17.329Z,7.73
2019-01-04T05:42:56.472Z,7.53
2019-01-04T05:45:33.765Z,7.37
2019-01-04T05:48:19.813Z,7.70
2019-01-04T05:51:19.923Z,7.60
2019-01-04T05:54:19.957Z,8.60
2019-01-04T05:56:59.142Z,9.30
2019-01-04T05:59:39.165Z,8.40
2019-01-04T06:02:18.387Z,9.17
2019-01-04T06:04:58.394Z,9.57
2019-01-04T06:07:40.883Z,8.97
2019-01-04T06:10:19.934Z,8.70
2019-01-04T06:13:01.974Z,8.63
2019-01-04T06:15:44.085Z,9.43
2019-01-04T06:18:23.364Z,8.87
2019-01-04T06:21:02.490Z,8.60
2019-01-04T06:23:42.544Z,7.73
2019-01-04T06:26:21.794Z,8.87
2019-01-04T06:29:01.053Z,7.80
2019-01-04T06:31:41.092Z,7.20
2019-01-04T06:34:20.221Z,8.93
2019-01-04T06:37:02.456Z,9.37
2019-01-04T06:39:42.334Z,8.13
2019-01-04T06:42:24.650Z,8.50
2019-01-04T06:45:06.571Z,7.23
2019-01-04T06:47:45.739Z,7.00
2019-01-04T06:50:24.806Z,6.30
2019-01-04T06:53:03.897Z,6.27
2019-01-04T06:55:43.126Z,6.40
2019-01-04T06:58:23.139Z,6.07
2019-01-04T07:01:05.094Z,5.73
2019-01-04T07:03:45.031Z,5.20
2019-01-04T07:06:24.168Z,5.43
2019-01-04T07:09:03.618Z,5.63
2019-01-04T07:11:43.114Z,5.43
2019-01-04T07:14:22.324Z,5.23
2019-01-04T07:17:02.297Z,5.03
2019-01-04T07:19:42.244Z,5.60
2019-01-04T07:22:21.578Z,4.53
2019-01-04T07:25:03.786Z,5.43
2019-01-04T07:27:45.931Z,4.83
2019-01-04T07:30:25.889Z,4.53
2019-01-04T07:33:05.124Z,4.53
2019-01-04T07:35:45.148Z,4.43
2019-01-04T07:38:24.237Z,5.03
2019-01-04T07:41:23.429Z,5.30
2019-01-04T07:44:02.496Z,5.47
2019-01-04T07:47:01.812Z,5.33
2019-01-04T07:50:01.120Z,5.00
2019-01-04T07:52:41.221Z,6.00
2019-01-04T07:55:41.199Z,5.00
2019-01-04T07:58:23.317Z,4.87
2019-01-04T08:01:05.482Z,5.67
2019-01-04T08:03:44.626Z,5.47
2019-01-04T08:06:24.664Z,4.97
2019-01-04T08:09:04.602Z,5.20
2019-01-04T08:11:44.623Z,5.13
2019-01-04T08:14:26.685Z,4.90
2019-01-04T08:17:08.832Z,5.17
2019-01-04T08:19:51.030Z,5.10
2019-01-04T08:22:33.310Z,5.20
2019-01-04T08:25:15.461Z,5.17
2019-01-04T08:27:55.470Z,5.53
2019-01-04T08:30:37.474Z,4.37
2019-01-04T08:33:16.654Z,4.40
2019-01-04T08:35:56.476Z,5.27
2019-01-04T08:38:35.590Z,5.43
2019-01-04T08:41:17.885Z,5.20
2019-01-04T08:43:57.691Z,5.53
2019-01-04T08:46:36.920Z,5.63
2019-01-04T08:49:19.025Z,5.67
2019-01-04T08:52:01.384Z,6.37
2019-01-04T08:54:43.301Z,5.83
2019-01-04T08:57:23.384Z,5.73
2019-01-04T09:00:03.365Z,5.90
2019-01-04T09:02:43.377Z,6.10
2019-01-04T09:05:25.572Z,7.30
2019-01-04T09:08:07.781Z,6.57
2019-01-04T09:10:46.987Z,6.30
2019-01-04T09:13:26.197Z,6.80
2019-01-04T09:16:05.424Z,7.50
2019-01-04T09:18:45.337Z,6.67
2019-01-04T09:21:27.508Z,6.67
2019-01-04T09:24:09.686Z,6.77
2019-01-04T09:26:51.714Z,7.37
2019-01-04T09:29:30.952Z,6.57
2019-01-04T09:32:10.117Z,7.00
2019-01-04T09:34:49.934Z,6.60
2019-01-04T09:37:29.195Z,7.97
2019-01-04T09:40:08.271Z,7.53
2019-01-04T09:43:07.360Z,9.30
2019-01-04T09:46:06.710Z,6.93
2019-01-04T09:48:48.754Z,9.17
2019-01-04T09:51:31.027Z,8.13
2019-01-04T09:54:10.827Z,9.53
2019-01-04T09:56:50.981Z,9.53
2019-01-04T09:59:50.088Z,8.50
2019-01-04T10:02:32.018Z,8.13
2019-01-04T10:05:11.226Z,9.30
2019-01-04T10:07:50.337Z,7.80
2019-01-04T10:10:29.414Z,9.50
2019-01-04T10:13:08.500Z,9.13
2019-01-04T10:15:47.684Z,9.80
2019-01-04T10:18:27.656Z,9.47
2019-01-04T10:21:07.689Z,10.20
2019-01-04T10:23:49.848Z,9.83
2019-01-04T10:26:49.023Z,9.70
2019-01-04T10:29:49.070Z,10.03
2019-01-04T10:32:49.230Z,9.80
2019-01-04T10:35:29.205Z,10.17
2019-01-04T10:38:11.429Z,10.10
2019-01-04T10:40:53.629Z,10.03
2019-01-04T10:43:52.988Z,10.33
2019-01-04T10:46:52.076Z,13.40
2019-01-04T10:49:33.983Z,10.97
2019-01-04T10:52:14.039Z,10.97
2019-01-04T10:54:53.147Z,10.63
2019-01-04T10:57:32.198Z,10.77
2019-01-04T11:00:14.169Z,11.40
2019-01-04T11:02:53.402Z,11.50
2019-01-04T11:05:32.697Z,12.27
2019-01-04T11:08:12.726Z,11.47
2019-01-04T11:10:39.098Z,11.50
2019-01-04T11:13:25.164Z,13.00
2019-01-04T11:16:04.939Z,11.77
2019-01-04T11:18:44.100Z,12.20
2019-01-04T11:21:26.284Z,12.93
2019-01-04T11:24:08.212Z,11.70
2019-01-04T11:26:48.232Z,12.53
2019-01-04T11:29:28.210Z,12.63
2019-01-04T11:32:08.164Z,13.50
2019-01-04T11:34:50.290Z,12.73
2019-01-04T11:37:49.449Z,11.00
2019-01-04T11:40:28.715Z,14.33
2019-01-04T11:43:13.947Z,13.33
2019-01-04T11:46:40.093Z,12.93
2019-01-04T11:49:39.189Z,13.20
2019-01-04T11:52:18.270Z,11.90
2019-01-04T11:54:58.196Z,13.43
2019-01-04T11:57:37.560Z,13.77
2019-01-04T12:00:17.604Z,12.53
2019-01-04T12:05:45.908Z,12.80
2019-01-04T12:08:25.128Z,14.17
2019-01-04T12:11:04.486Z,12.57
2019-01-04T12:13:44.483Z,13.13
2019-01-04T12:16:23.650Z,12.83
2019-01-04T12:19:05.681Z,13.83
2019-01-04T12:22:04.830Z,11.93
2019-01-04T12:24:46.816Z,12.57
2019-01-04T12:27:28.848Z,13.27
2019-01-04T12:30:08.745Z,12.70
2019-01-04T12:32:48.717Z,12.90
2019-01-04T12:35:48.030Z,11.83
2019-01-04T12:38:27.185Z,12.97
2019-01-04T12:41:26.272Z,12.90
2019-01-04T12:44:23.598Z,11.57
2019-01-04T12:47:09.665Z,12.40
2019-01-04T12:50:08.862Z,13.13
2019-01-04T12:53:08.055Z,12.03
2019-01-04T12:56:07.382Z,11.13
2019-01-04T12:58:49.317Z,11.07
2019-01-04T13:01:31.637Z,11.60
2019-01-04T13:04:13.507Z,11.90
2019-01-04T13:06:52.721Z,12.03
2019-01-04T13:09:32.063Z,10.97
2019-01-04T13:12:31.264Z,10.93
2019-01-04T13:15:10.587Z,10.10
2019-01-04T13:17:52.651Z,11.33
2019-01-04T13:20:32.436Z,11.47
2019-01-04T13:23:11.665Z,10.97
2019-01-04T13:25:50.808Z,12.30
2019-01-04T13:28:30.876Z,10.93
2019-01-04T13:31:12.946Z,11.90
2019-01-04T13:33:55.277Z,11.60
2019-01-04T13:36:37.413Z,11.87
2019-01-04T13:39:19.669Z,11.63
2019-01-04T13:42:19.322Z,10.67
2019-01-04T13:44:59.389Z,11.77
2019-01-04T13:47:39.292Z,13.07
2019-01-04T13:50:21.289Z,12.20
2019-01-04T13:53:03.521Z,11.33
2019-01-04T13:55:42.569Z,11.20
2019-01-04T13:58:22.521Z,12.40
2019-01-04T14:01:02.013Z,11.73
2019-01-04T14:03:44.058Z,12.23
2019-01-04T14:06:23.148Z,13.33
2019-01-04T14:09:03.550Z,11.87
2019-01-04T14:11:43.071Z,13.17
2019-01-04T14:14:25.253Z,12.37
2019-01-04T14:17:07.529Z,11.63
2019-01-04T14:19:49.829Z,12.27
2019-01-04T14:22:49.235Z,13.17
2019-01-04T14:25:29.097Z,12.60
2019-01-04T14:28:11.134Z,12.33
2019-01-04T14:30:51.028Z,13.10
2019-01-04T14:33:28.151Z,13.47
2019-01-04T14:36:37.083Z,12.43
2019-01-04T14:39:36.557Z,13.27
2019-01-04T14:42:18.489Z,13.77
2019-01-04T14:45:00.652Z,13.83
2019-01-04T14:47:42.756Z,12.90
2019-01-04T14:50:22.777Z,15.10
2019-01-04T14:53:01.994Z,14.80
2019-01-04T14:55:41.849Z,15.37
2019-01-04T14:58:24.200Z,15.53
2019-01-04T15:01:03.363Z,16.43
2019-01-04T15:04:02.436Z,15.57
2019-01-04T15:07:01.625Z,16.20
2019-01-04T15:10:01.497Z,16.57
2019-01-04T15:12:40.652Z,17.07
2019-01-04T15:15:20.728Z,15.23
2019-01-04T15:18:00.776Z,16.03
2019-01-04T15:20:40.873Z,16.53
2019-01-04T15:23:19.956Z,15.20
2019-01-04T15:25:59.130Z,14.27
2019-01-04T15:28:36.328Z,15.93
2019-01-04T15:31:22.380Z,15.40
2019-01-04T15:34:01.741Z,15.60
2019-01-04T15:36:40.931Z,14.87
2019-01-04T15:39:40.056Z,15.30
2019-01-04T15:42:22.187Z,15.37
2019-01-04T15:45:04.163Z,13.20
2019-01-04T15:47:43.507Z,15.77
2019-01-04T15:50:22.810Z,13.13
2019-01-04T15:53:04.782Z,14.07
2019-01-04T15:55:43.872Z,12.83
2019-01-04T15:58:23.892Z,11.13
2019-01-04T16:01:03.894Z,12.23
2019-01-04T16:03:45.882Z,14.03
2019-01-04T16:06:28.022Z,13.03
2019-01-04T16:09:09.938Z,11.93
2019-01-04T16:11:49.097Z,12.97
2019-01-04T16:14:28.104Z,16.83
2019-01-04T16:17:12.112Z,14.47
2019-01-04T16:19:52.149Z,14.27
2019-01-04T16:22:32.185Z,14.10
2019-01-04T16:25:11.715Z,12.90
2019-01-04T16:27:54.386Z,11.53
2019-01-04T16:30:34.426Z,10.87
2019-01-04T16:33:16.449Z,11.53
2019-01-04T16:36:15.753Z,10.93
2019-01-04T16:39:14.981Z,10.87
2019-01-04T16:41:56.972Z,12.20
2019-01-04T16:44:39.012Z,12.17
2019-01-04T16:47:18.405Z,12.07
2019-01-04T16:50:00.390Z,12.33
2019-01-04T16:52:39.536Z,12.73
2019-01-04T16:55:18.697Z,12.10
2019-01-04T16:57:58.814Z,11.47
2019-01-04T17:00:38.001Z,11.97
2019-01-04T17:03:17.303Z,10.87
2019-01-04T17:05:57.235Z,10.80
2019-01-04T17:08:36.412Z,11.90
2019-01-04T17:11:15.494Z,12.40
2019-01-04T17:13:55.452Z,11.93
2019-01-04T17:16:54.800Z,12.60
2019-01-04T17:19:54.717Z,12.10
2019-01-04T17:22:54.126Z,13.13
2019-01-04T17:25:53.601Z,11.47
2019-01-04T17:28:52.794Z,11.13
2019-01-04T17:31:51.873Z,13.03
2019-01-04T17:34:34.093Z,11.57
2019-01-04T17:37:16.265Z,13.93
2019-01-04T17:39:58.552Z,11.93
2019-01-04T17:42:57.767Z,11.77
2019-01-04T17:45:56.976Z,12.30
2019-01-04T17:48:39.172Z,12.50
2019-01-04T17:51:18.465Z,11.30
2019-01-04T17:53:57.838Z,12.67
2019-01-04T17:56:37.050Z,12.47
2019-01-04T17:59:16.229Z,13.00
2019-01-04T18:01:55.364Z,11.47
2019-01-04T18:04:34.464Z,12.90
2019-01-04T18:07:13.864Z,14.07
2019-01-04T18:09:53.051Z,14.50
2019-01-04T18:12:33.163Z,13.47
2019-01-04T18:15:12.545Z,12.73
2019-01-04T18:17:51.698Z,14.97
2019-01-04T18:20:30.906Z,12.47
2019-01-04T18:23:10.249Z,13.70
2019-01-04T18:25:49.420Z,13.63
2019-01-04T18:28:28.784Z,14.70
2019-01-04T18:31:08.748Z,13.40
2019-01-04T18:33:47.887Z,13.37
2019-01-04T18:36:27.819Z,14.53
2019-01-04T18:39:06.931Z,13.13
2019-01-04T18:41:46.233Z,13.20
2019-01-04T18:44:26.215Z,14.67
2019-01-04T18:47:25.561Z,15.43
2019-01-04T18:50:05.586Z,13.73
2019-01-04T18:53:04.822Z,15.67
2019-01-04T18:55:43.963Z,14.80
2019-01-04T18:58:23.197Z,16.63
2019-01-04T19:01:03.001Z,15.30
2019-01-04T19:03:45.153Z,16.47
2019-01-04T19:06:31.143Z,17.07
2019-01-04T19:09:08.565Z,15.50
2019-01-04T19:12:07.681Z,17.43
2019-01-04T19:14:49.850Z,16.63
2019-01-04T19:17:29.879Z,16.67
2019-01-04T19:20:08.939Z,18.23
2019-01-04T19:22:48.015Z,17.10
2019-01-04T19:25:30.110Z,15.63
2019-01-04T19:28:12.112Z,16.30
2019-01-04T19:30:52.090Z,15.07
2019-01-04T19:33:32.172Z,14.23
2019-01-04T19:36:12.234Z,14.77
2019-01-04T19:38:52.427Z,12.70
2019-01-04T19:41:32.434Z,13.37
2019-01-04T19:44:31.600Z,13.50
2019-01-04T19:47:13.804Z,13.10
2019-01-04T19:49:55.842Z,11.93
2019-01-04T19:52:38.120Z,14.43
2019-01-04T19:55:20.155Z,12.73
2019-01-04T19:58:00.046Z,12.37
2019-01-04T20:00:40.013Z,11.67
2019-01-04T20:03:19.147Z,11.97
2019-01-04T20:06:00.295Z,11.77
2019-01-04T20:08:42.341Z,10.37
2019-01-04T20:11:29.577Z,10.53
2019-01-04T20:14:14.255Z,10.63
2019-01-04T20:16:58.568Z,11.70
2019-01-04T20:19:57.773Z,11.37
2019-01-04T20:22:41.848Z,11.00
2019-01-04T20:25:25.908Z,12.07
2019-01-04T20:31:18.102Z,12.00
2019-01-04T20:34:37.354Z,12.57
2019-01-04T20:37:39.407Z,12.60
2019-01-04T20:40:41.704Z,11.67
2019-01-04T20:43:29.971Z,14.57
2019-01-04T20:46:10.999Z,13.27
2019-01-04T20:49:13.114Z,12.00
2019-01-04T20:51:57.628Z,10.67
2019-01-04T20:54:39.028Z,11.50
2019-01-04T20:57:37.941Z,11.73
2019-01-04T21:00:40.012Z,11.83
2019-01-04T21:03:42.319Z,11.23
2019-01-04T21:06:29.505Z,10.43
2019-01-04T21:09:51.857Z,9.13
2019-01-04T21:12:35.324Z,10.20
2019-01-04T21:15:34.499Z,9.80
2019-01-04T21:22:08.115Z,10.17
2019-01-04T21:24:50.087Z,9.13
2019-01-04T21:37:27.264Z,9.23
2019-01-04T21:40:46.975Z,7.57
2019-01-04T21:43:31.168Z,9.40
2019-01-04T21:46:30.525Z,8.97
2019-01-04T21:53:04.304Z,8.83
2019-01-04T21:55:45.436Z,9.80
2019-01-04T21:58:49.401Z,10.77
2019-01-04T22:02:08.722Z,11.10
2019-01-04T22:05:28.199Z,10.83
2019-01-04T22:08:47.563Z,11.10
2019-01-04T22:11:46.854Z,10.63
2019-01-04T22:14:46.861Z,11.73
2019-01-04T22:17:51.319Z,12.03
2019-01-04T22:20:50.330Z,13.33
2019-01-04T22:23:37.439Z,13.80
2019-01-04T22:26:41.984Z,13.00
2019-01-04T22:29:43.130Z,13.90
2019-01-04T22:32:46.859Z,13.53
2019-01-04T22:35:28.222Z,15.50
2019-01-04T22:38:28.116Z,15.37
2019-01-04T22:41:09.348Z,17.73
2019-01-04T22:44:08.401Z,16.43
2019-01-04T22:57:55.107Z,16.00
2019-01-04T23:00:54.096Z,17.83
2019-01-04T23:03:53.378Z,17.67
2019-01-04T23:06:52.854Z,17.40
2019-01-04T23:12:59.537Z,21.20
2019-01-04T23:15:43.714Z,21.60
2019-01-04T23:21:32.521Z,28.30
2019-01-04T23:24:16.681Z,28.73
2019-01-04T23:27:00.534Z,33.70
2019-01-04T23:29:59.828Z,34.27
2019-01-04T23:32:41.205Z,36.70
2019-01-04T23:38:41.545Z,36.00
2019-01-04T23:41:40.674Z,34.93
2019-01-04T23:44:39.985Z,35.93
2019-01-04T23:47:39.277Z,36.27
2019-01-04T23:50:23.528Z,33.33
2019-01-04T23:53:04.829Z,35.17
2019-01-04T23:55:48.888Z,32.57
2019-01-04T23:59:08.347Z,30.57
